Neenah, Wisconsin
Current Conditions -  °F | °C
As of 1:45 PM on Friday 31 Oct 2014 (Local Time) from KATW Reporting Station
Broken Clouds Broken Clouds  
Wind Chill: 26°   Ceiling: 4300
Heat Index: 37°   Visibility: 10mi
Dew Point: 19°   Wind: 26mph
Humidity: 48%   Direction: 10°N
Pressure: 30.33"   Gusts: 35mph
Location:  44.19°N, 88.46°W
Report Text: KATW 311845Z 01023G30KT 10SM BKN043 03/M07 A3033
Loading
Personal Weather Stations






























Interactive Weather Map
Tropical Storm Tracking
New forecast layout! Learn more

10-Day Weather Forecast

Advertisements
Track Severe Weather on mobile